Time;durP1;ratioP1;P1;durP2;ratioP2;P2;SDS_P1;SDS_P2;PMS_P1;PMS_P2;Temp;Humidity;BMP_temperature;BMP_pressure;BME280_temperature;BME280_humidity;BME280_pressure;Samples;Min_cycle;Max_cycle;Signal;HPM_P1;HPM_P2
2023/09/21 00:00:13;;;;;;;8.43;5.93;;;;;;;;;;5111807;28;20046;-66
2023/09/21 00:02:46;;;;;;;8.85;6.47;;;;;;;;;;5111609;28;20557;-66
2023/09/21 00:05:13;;;;;;;9.35;5.90;;;;;;;;;;5111725;28;20040;-66
2023/09/21 00:07:38;;;;;;;8.50;6.07;;;;;;;;;;5111515;28;20062;-66
2023/09/21 00:10:07;;;;;;;8.77;6.28;;;;;;;;;;5111585;28;20039;-68
2023/09/21 00:12:34;;;;;;;7.28;6.53;;;;;;;;;;5110341;28;20035;-67
2023/09/21 00:15:20;;;;;;;7.80;5.90;;;;;;;;;;5111679;28;20437;-67
2023/09/21 00:17:47;;;;;;;8.18;6.28;;;;;;;;;;5110212;28;20059;-67
2023/09/21 00:20:23;;;;;;;8.38;6.32;;;;;;;;;;5110144;28;20408;-66
2023/09/21 00:22:51;;;;;;;9.15;6.85;;;;;;;;;;5111234;28;20043;-66
2023/09/21 00:25:17;;;;;;;8.82;6.68;;;;;;;;;;5111167;28;20039;-66
2023/09/21 00:27:42;;;;;;;8.73;6.43;;;;;;;;;;5110789;28;20417;-66
2023/09/21 00:30:08;;;;;;;8.18;6.82;;;;;;;;;;5111228;28;20472;-66
2023/09/21 00:32:39;;;;;;;6.85;6.03;;;;;;;;;;5111001;28;20048;-67
2023/09/21 00:35:09;;;;;;;8.18;6.88;;;;;;;;;;5110031;28;20031;-66
2023/09/21 00:37:38;;;;;;;11.93;7.22;;;;;;;;;;5112152;28;20035;-66
2023/09/21 00:40:24;;;;;;;10.43;6.75;;;;;;;;;;5113703;28;20039;-66
2023/09/21 00:42:53;;;;;;;11.90;6.90;;;;;;;;;;5112954;28;20036;-66
2023/09/21 00:45:21;;;;;;;11.75;7.20;;;;;;;;;;5115061;28;20063;-66
2023/09/21 00:47:49;;;;;;;9.05;6.53;;;;;;;;;;5114840;27;20035;-68
2023/09/21 00:50:15;;;;;;;10.55;7.10;;;;;;;;;;5085383;28;20044;-66
2023/09/21 00:52:44;;;;;;;9.23;6.93;;;;;;;;;;5081730;28;20051;-66
2023/09/21 00:55:12;;;;;;;10.38;7.15;;;;;;;;;;5084705;28;20032;-67
2023/09/21 00:57:38;;;;;;;10.85;7.20;;;;;;;;;;5092712;28;20562;-66
2023/09/21 01:00:12;;;;;;;12.90;7.32;;;;;;;;;;5094189;28;20473;-67
2023/09/21 01:02:38;;;;;;;12.98;7.43;;;;;;;;;;5094011;28;20112;-66
2023/09/21 01:05:05;;;;;;;8.15;7.18;;;;;;;;;;5093949;28;20390;-67
2023/09/21 01:07:32;;;;;;;11.82;7.38;;;;;;;;;;5093981;28;20441;-67
2023/09/21 01:09:57;;;;;;;10.60;7.78;;;;;;;;;;5094064;28;20055;-67
2023/09/21 01:12:25;;;;;;;9.48;7.43;;;;;;;;;;5094355;28;20040;-68
2023/09/21 01:15:11;;;;;;;10.93;7.53;;;;;;;;;;5092730;28;20032;-68
2023/09/21 01:17:39;;;;;;;10.15;7.18;;;;;;;;;;5092625;28;20047;-67
2023/09/21 01:20:17;;;;;;;11.82;7.47;;;;;;;;;;5092670;28;20518;-67
2023/09/21 01:22:48;;;;;;;11.45;7.60;;;;;;;;;;5093843;28;20035;-66
2023/09/21 01:25:15;;;;;;;10.00;7.50;;;;;;;;;;5092319;28;20028;-67
2023/09/21 01:27:42;;;;;;;11.82;7.70;;;;;;;;;;5093458;28;20032;-66
2023/09/21 01:30:11;;;;;;;10.48;7.70;;;;;;;;;;5113552;28;20081;-67
2023/09/21 01:32:40;;;;;;;10.50;7.28;;;;;;;;;;5112238;28;20047;-66
2023/09/21 01:35:07;;;;;;;9.90;7.65;;;;;;;;;;5095710;28;20035;-66
2023/09/21 01:37:35;;;;;;;8.95;7.55;;;;;;;;;;5113639;28;20043;-68
2023/09/21 01:40:01;;;;;;;13.05;8.35;;;;;;;;;;5114079;28;20042;-67
2023/09/21 01:42:31;;;;;;;12.45;8.15;;;;;;;;;;5113403;28;20421;-68
2023/09/21 01:44:59;;;;;;;15.90;8.50;;;;;;;;;;5113909;28;20035;-68
2023/09/21 01:47:25;;;;;;;12.02;7.70;;;;;;;;;;5095486;28;20475;-67
2023/09/21 01:49:50;;;;;;;12.32;8.45;;;;;;;;;;5113679;28;20110;-67
2023/09/21 01:52:16;;;;;;;10.85;8.43;;;;;;;;;;5113610;28;20085;-67
2023/09/21 01:54:41;;;;;;;12.23;8.52;;;;;;;;;;5113738;28;20035;-66
2023/09/21 01:57:08;;;;;;;12.38;8.70;;;;;;;;;;5095325;28;20070;-66
2023/09/21 01:59:35;;;;;;;10.55;8.25;;;;;;;;;;5112101;28;20047;-66
2023/09/21 02:02:01;;;;;;;10.68;8.38;;;;;;;;;;5111948;28;20046;-66
2023/09/21 02:04:27;;;;;;;12.90;8.07;;;;;;;;;;5095418;28;20037;-67
2023/09/21 02:06:52;;;;;;;10.90;8.05;;;;;;;;;;5111981;28;20072;-66
2023/09/21 02:09:19;;;;;;;8.98;7.78;;;;;;;;;;5111732;28;20031;-67
2023/09/21 02:11:44;;;;;;;11.90;7.78;;;;;;;;;;5111852;28;20088;-67
2023/09/21 02:14:11;;;;;;;8.93;7.85;;;;;;;;;;5111787;28;20488;-66
2023/09/21 02:16:38;;;;;;;13.50;7.97;;;;;;;;;;5112025;28;20031;-67
2023/09/21 02:19:03;;;;;;;13.63;7.90;;;;;;;;;;5094253;28;20076;-67
2023/09/21 02:21:29;;;;;;;16.77;8.40;;;;;;;;;;5110922;28;20118;-67
2023/09/21 02:23:55;;;;;;;11.77;8.02;;;;;;;;;;5112637;28;20036;-67
2023/09/21 02:26:21;;;;;;;14.68;8.55;;;;;;;;;;5112750;28;20050;-67
2023/09/21 02:28:48;;;;;;;12.40;8.95;;;;;;;;;;5111508;28;20036;-66
2023/09/21 02:31:15;;;;;;;11.13;7.63;;;;;;;;;;5111372;28;20487;-67
2023/09/21 02:33:42;;;;;;;15.55;8.23;;;;;;;;;;5111660;28;20071;-67
2023/09/21 02:36:19;;;;;;;11.32;8.15;;;;;;;;;;5113186;28;20271;-66
2023/09/21 02:38:45;;;;;;;9.75;8.20;;;;;;;;;;5111592;28;20039;-67
2023/09/21 02:41:11;;;;;;;12.55;8.70;;;;;;;;;;5113055;28;20032;-67
2023/09/21 02:43:40;;;;;;;12.38;7.45;;;;;;;;;;5111517;28;20051;-67
2023/09/21 02:46:06;;;;;;;10.77;8.05;;;;;;;;;;5111387;28;20463;-67
2023/09/21 02:48:31;;;;;;;10.38;8.20;;;;;;;;;;5094109;28;20181;-66
2023/09/21 02:50:58;;;;;;;12.38;8.57;;;;;;;;;;5111163;28;20133;-67
2023/09/21 02:53:24;;;;;;;14.90;11.15;;;;;;;;;;5111343;28;20043;-66
2023/09/21 02:55:50;;;;;;;10.90;8.20;;;;;;;;;;5112180;28;20032;-66
2023/09/21 02:58:19;;;;;;;15.23;8.85;;;;;;;;;;5110888;28;20043;-66
2023/09/21 03:00:49;;;;;;;10.75;8.80;;;;;;;;;;5110696;28;20043;-66
2023/09/21 03:03:16;;;;;;;12.52;8.50;;;;;;;;;;5061407;28;20080;-66
2023/09/21 03:05:46;;;;;;;8.82;7.93;;;;;;;;;;5070514;28;20038;-67
2023/09/21 03:08:14;;;;;;;11.48;8.20;;;;;;;;;;5070528;28;20032;-66
2023/09/21 03:10:44;;;;;;;11.70;8.50;;;;;;;;;;5037179;28;20409;-67
2023/09/21 03:13:20;;;;;;;12.15;8.30;;;;;;;;;;5070348;28;20044;-67
2023/09/21 03:15:48;;;;;;;13.50;8.35;;;;;;;;;;5070455;28;20032;-67
2023/09/21 03:18:14;;;;;;;10.52;7.88;;;;;;;;;;5070380;28;20490;-67
2023/09/21 03:20:40;;;;;;;10.57;7.78;;;;;;;;;;5070234;28;20036;-66
2023/09/21 03:23:09;;;;;;;9.77;7.63;;;;;;;;;;5070883;28;20043;-66
2023/09/21 03:25:42;;;;;;;11.40;8.60;;;;;;;;;;5070261;28;20042;-67
2023/09/21 03:28:13;;;;;;;9.98;7.85;;;;;;;;;;5076499;28;20035;-66
2023/09/21 03:30:39;;;;;;;;;;;;;;;;;;5112465;28;20055;-67
2023/09/21 03:33:05;;;;;;;10.88;7.88;;;;;;;;;;5111608;28;20438;-66
2023/09/21 03:35:31;;;;;;;11.77;7.97;;;;;;;;;;5112258;28;20126;-68
2023/09/21 03:37:57;;;;;;;15.73;8.63;;;;;;;;;;5111910;28;20114;-66
2023/09/21 03:40:25;;;;;;;10.00;8.20;;;;;;;;;;5110493;28;20036;-66
2023/09/21 03:42:52;;;;;;;12.65;7.78;;;;;;;;;;5110296;28;20035;-67
2023/09/21 03:45:20;;;;;;;10.63;7.63;;;;;;;;;;5110519;28;20032;-67
2023/09/21 03:47:46;;;;;;;12.20;8.52;;;;;;;;;;5110621;28;20065;-66
2023/09/21 03:50:13;;;;;;;11.25;8.10;;;;;;;;;;5110111;28;20043;-67
2023/09/21 03:52:40;;;;;;;12.05;7.95;;;;;;;;;;5111764;28;20044;-66
2023/09/21 03:55:08;;;;;;;13.82;8.05;;;;;;;;;;5110387;28;20509;-66
2023/09/21 03:57:34;;;;;;;14.18;7.97;;;;;;;;;;5110172;28;20050;-67
2023/09/21 03:59:59;;;;;;;9.55;8.07;;;;;;;;;;5110282;28;20043;-65
2023/09/21 04:02:25;;;;;;;10.18;7.95;;;;;;;;;;5110455;28;20075;-67
2023/09/21 04:04:51;;;;;;;10.13;7.93;;;;;;;;;;5092922;28;20051;-67
2023/09/21 04:07:18;;;;;;;10.90;7.80;;;;;;;;;;5109981;28;20044;-67
2023/09/21 04:09:45;;;;;;;15.07;7.85;;;;;;;;;;5092642;28;20055;-67
2023/09/21 04:12:10;;;;;;;10.23;7.45;;;;;;;;;;5112005;28;20070;-68
2023/09/21 04:14:36;;;;;;;10.88;7.57;;;;;;;;;;5115415;27;20043;-67
2023/09/21 04:17:03;;;;;;;12.70;7.93;;;;;;;;;;5095380;28;20036;-67
2023/09/21 04:19:29;;;;;;;10.57;8.27;;;;;;;;;;5094820;28;20073;-67
2023/09/21 04:21:55;;;;;;;11.55;7.85;;;;;;;;;;5114404;28;20039;-67
2023/09/21 04:24:21;;;;;;;13.23;8.02;;;;;;;;;;5115319;28;20043;-68
2023/09/21 04:26:46;;;;;;;11.27;7.63;;;;;;;;;;5115308;28;20503;-67
2023/09/21 04:29:12;;;;;;;9.65;7.55;;;;;;;;;;5114816;28;20067;-67
2023/09/21 04:31:39;;;;;;;10.05;7.70;;;;;;;;;;5113579;28;20064;-68
2023/09/21 04:34:05;;;;;;;8.98;7.32;;;;;;;;;;5077026;28;20025;-69
2023/09/21 04:36:31;;;;;;;11.63;7.68;;;;;;;;;;5073330;28;20089;-68
2023/09/21 04:38:56;;;;;;;10.57;7.35;;;;;;;;;;5074350;28;20040;-67
2023/09/21 04:41:23;;;;;;;10.05;7.50;;;;;;;;;;5056486;28;20059;-67
2023/09/21 04:43:49;;;;;;;8.50;7.20;;;;;;;;;;5072855;28;20044;-67
2023/09/21 04:46:17;;;;;;;14.27;8.10;;;;;;;;;;5072577;28;20033;-68
2023/09/21 04:48:43;;;;;;;10.55;7.78;;;;;;;;;;5077505;28;20051;-68
2023/09/21 04:51:12;;;;;;;12.95;7.68;;;;;;;;;;5070064;28;20075;-66
2023/09/21 04:53:39;;;;;;;10.93;7.97;;;;;;;;;;5076321;28;20040;-68
2023/09/21 04:56:04;;;;;;;9.32;7.40;;;;;;;;;;5076185;28;20116;-67
2023/09/21 04:58:30;;;;;;;9.25;7.57;;;;;;;;;;5094078;28;20040;-70
2023/09/21 05:00:55;;;;;;;11.48;7.90;;;;;;;;;;5075644;28;20123;-72
2023/09/21 05:03:21;;;;;;;9.55;7.72;;;;;;;;;;5092803;28;20108;-67
2023/09/21 05:05:47;;;;;;;9.85;7.32;;;;;;;;;;5094241;28;20473;-68
2023/09/21 05:08:13;;;;;;;11.50;7.75;;;;;;;;;;5092622;28;20044;-68
2023/09/21 05:10:42;;;;;;;16.88;8.57;;;;;;;;;;5091513;28;20588;-69
2023/09/21 05:13:07;;;;;;;11.60;7.90;;;;;;;;;;5092663;28;20108;-67
2023/09/21 05:15:33;;;;;;;10.70;8.05;;;;;;;;;;5094125;28;20450;-68
2023/09/21 05:17:59;;;;;;;13.80;8.05;;;;;;;;;;5093815;28;20040;-71
2023/09/21 05:20:24;;;;;;;9.35;7.38;;;;;;;;;;5092486;28;20051;-67
2023/09/21 05:22:51;;;;;;;10.98;7.78;;;;;;;;;;5093071;28;20405;-67
2023/09/21 05:25:16;;;;;;;9.70;7.50;;;;;;;;;;5093837;28;20028;-68
2023/09/21 05:27:42;;;;;;;15.20;8.07;;;;;;;;;;5092646;28;20314;-68
2023/09/21 05:30:13;;;;;;;12.07;7.18;;;;;;;;;;5092640;28;20040;-68
2023/09/21 05:32:39;;;;;;;17.23;8.50;;;;;;;;;;5091934;28;20079;-68
2023/09/21 05:35:05;;;;;;;11.52;8.48;;;;;;;;;;5093495;28;20481;-68
2023/09/21 05:37:31;;;;;;;14.50;8.68;;;;;;;;;;5093490;28;20093;-67
2023/09/21 05:39:56;;;;;;;19.35;7.90;;;;;;;;;;5093391;28;20036;-69
2023/09/21 05:42:25;;;;;;;18.70;7.38;;;;;;;;;;5089554;28;20474;-68
2023/09/21 05:44:50;;;;;;;9.95;7.28;;;;;;;;;;5083597;28;20032;-69
2023/09/21 05:47:16;;;;;;;9.77;7.32;;;;;;;;;;5080656;28;20454;-68
2023/09/21 05:49:43;;;;;;;12.60;8.45;;;;;;;;;;5083703;28;20065;-68
2023/09/21 05:52:12;;;;;;;11.20;7.63;;;;;;;;;;5081247;28;20045;-69
2023/09/21 05:54:40;;;;;;;9.52;7.68;;;;;;;;;;5081534;28;20408;-69
2023/09/21 05:57:06;;;;;;;8.45;7.35;;;;;;;;;;5081219;28;20037;-69
2023/09/21 05:59:31;;;;;;;10.70;7.50;;;;;;;;;;5082478;28;20039;-69
2023/09/21 06:01:57;;;;;;;11.88;7.28;;;;;;;;;;5082952;28;20067;-69
2023/09/21 06:04:23;;;;;;;8.75;6.93;;;;;;;;;;5080017;28;20036;-68
2023/09/21 06:06:48;;;;;;;9.70;7.00;;;;;;;;;;5081633;28;20481;-68
2023/09/21 06:09:19;;;;;;;7.47;6.70;;;;;;;;;;5082659;28;20455;-68
2023/09/21 06:11:45;;;;;;;8.63;7.47;;;;;;;;;;5061200;28;20040;-69
2023/09/21 06:14:11;;;;;;;9.38;7.07;;;;;;;;;;5092057;28;20505;-67
2023/09/21 06:16:37;;;;;;;12.02;7.20;;;;;;;;;;5085185;28;20055;-68
2023/09/21 06:19:02;;;;;;;7.53;6.53;;;;;;;;;;5080730;28;20040;-68
2023/09/21 06:21:30;;;;;;;10.02;6.90;;;;;;;;;;5080125;28;20477;-65
2023/09/21 06:23:56;;;;;;;8.93;7.18;;;;;;;;;;5071623;28;20115;-69
2023/09/21 06:26:22;;;;;;;8.45;6.70;;;;;;;;;;5071884;28;20459;-69
2023/09/21 06:28:49;;;;;;;8.93;6.40;;;;;;;;;;5071835;28;20055;-68
2023/09/21 06:31:18;;;;;;;9.95;7.28;;;;;;;;;;5072138;28;20112;-67
2023/09/21 06:33:45;;;;;;;9.00;6.85;;;;;;;;;;5071782;28;20123;-69
2023/09/21 06:36:20;;;;;;;9.35;7.25;;;;;;;;;;5053674;28;20090;-69
2023/09/21 06:38:47;;;;;;;9.45;6.95;;;;;;;;;;5071867;28;20037;-70
2023/09/21 06:41:14;;;;;;;10.73;7.53;;;;;;;;;;5071986;28;20041;-68
2023/09/21 06:43:43;;;;;;;9.75;7.22;;;;;;;;;;5062914;28;20036;-69
2023/09/21 06:46:09;;;;;;;14.05;7.30;;;;;;;;;;5086262;28;20039;-69
2023/09/21 06:48:35;;;;;;;12.93;7.75;;;;;;;;;;5091627;28;20040;-66
2023/09/21 06:51:01;;;;;;;11.68;7.80;;;;;;;;;;5091457;28;20515;-67
2023/09/21 06:53:29;;;;;;;9.23;7.03;;;;;;;;;;5091578;28;20054;-67
2023/09/21 06:55:55;;;;;;;8.30;6.85;;;;;;;;;;5092155;28;20032;-68
2023/09/21 06:58:21;;;;;;;10.95;7.40;;;;;;;;;;5091040;28;20097;-66
2023/09/21 07:00:47;;;;;;;9.65;7.68;;;;;;;;;;5092189;28;20119;-68
2023/09/21 07:03:12;;;;;;;10.73;8.27;;;;;;;;;;5091521;28;20036;-66
2023/09/21 07:05:40;;;;;;;13.18;8.07;;;;;;;;;;5091717;28;20032;-66
2023/09/21 07:08:06;;;;;;;11.63;8.35;;;;;;;;;;5073044;28;20440;-67
2023/09/21 07:10:32;;;;;;;11.18;8.45;;;;;;;;;;5071627;28;20040;-66
2023/09/21 07:12:58;;;;;;;13.02;8.48;;;;;;;;;;5078477;28;20036;-67
2023/09/21 07:15:23;;;;;;;11.13;9.05;;;;;;;;;;5091933;28;20040;-66
2023/09/21 07:17:50;;;;;;;14.13;9.15;;;;;;;;;;5086006;28;20028;-67
2023/09/21 07:20:23;;;;;;;11.98;9.73;;;;;;;;;;5073326;28;20028;-65
2023/09/21 07:22:52;;;;;;;14.52;9.55;;;;;;;;;;5081158;28;20078;-67
2023/09/21 07:25:18;;;;;;;13.70;9.23;;;;;;;;;;5053311;28;20032;-67
2023/09/21 07:27:44;;;;;;;13.57;9.07;;;;;;;;;;5069697;28;20055;-67
2023/09/21 07:30:11;;;;;;;16.40;10.02;;;;;;;;;;5071435;28;20044;-68
2023/09/21 07:32:37;;;;;;;17.42;10.20;;;;;;;;;;5078415;28;20068;-68
2023/09/21 07:35:04;;;;;;;15.35;9.60;;;;;;;;;;5080266;28;20028;-68
2023/09/21 07:37:30;;;;;;;10.60;9.32;;;;;;;;;;5080909;28;20024;-67
2023/09/21 07:39:57;;;;;;;11.90;8.90;;;;;;;;;;5081865;28;20036;-68
2023/09/21 07:42:22;;;;;;;12.23;9.20;;;;;;;;;;5078066;28;20037;-67
2023/09/21 07:44:48;;;;;;;11.80;8.85;;;;;;;;;;5081184;28;20089;-66
2023/09/21 07:47:14;;;;;;;12.23;9.25;;;;;;;;;;5083205;28;20049;-67
2023/09/21 07:49:40;;;;;;;13.23;9.35;;;;;;;;;;5083965;28;20623;-67
2023/09/21 07:52:07;;;;;;;12.93;8.98;;;;;;;;;;5084708;28;20044;-67
2023/09/21 07:54:33;;;;;;;13.02;9.00;;;;;;;;;;5095534;28;20101;-67
2023/09/21 07:56:59;;;;;;;12.60;8.50;;;;;;;;;;5093617;28;20505;-68
2023/09/21 07:59:25;;;;;;;12.27;8.43;;;;;;;;;;5095535;28;20043;-68
2023/09/21 08:01:51;;;;;;;10.75;9.02;;;;;;;;;;5095092;28;20028;-68
2023/09/21 08:04:17;;;;;;;14.07;8.80;;;;;;;;;;5094097;28;20028;-68
2023/09/21 08:06:43;;;;;;;10.15;8.25;;;;;;;;;;5095302;28;20036;-68
2023/09/21 08:09:08;;;;;;;10.05;8.82;;;;;;;;;;5094971;28;20039;-68
2023/09/21 08:11:34;;;;;;;13.23;8.70;;;;;;;;;;5095212;28;20048;-67
2023/09/21 08:14:00;;;;;;;14.35;8.15;;;;;;;;;;5094352;28;20035;-69
2023/09/21 08:16:27;;;;;;;14.00;8.90;;;;;;;;;;5095186;28;20040;-68
2023/09/21 08:18:53;;;;;;;13.10;8.55;;;;;;;;;;5077334;28;20059;-68
2023/09/21 08:21:19;;;;;;;10.35;8.00;;;;;;;;;;5074980;28;20674;-68
2023/09/21 08:23:46;;;;;;;12.52;8.88;;;;;;;;;;5072580;28;20386;-69
2023/09/21 08:26:13;;;;;;;12.63;8.95;;;;;;;;;;5073134;28;20472;-70
2023/09/21 08:28:39;;;;;;;12.70;9.30;;;;;;;;;;5073029;28;20041;-68
2023/09/21 08:31:05;;;;;;;11.48;8.75;;;;;;;;;;5074427;28;20063;-67
2023/09/21 08:33:31;;;;;;;11.60;8.43;;;;;;;;;;5074157;28;20037;-70
2023/09/21 08:35:56;;;;;;;12.70;9.02;;;;;;;;;;5074692;28;20033;-67
2023/09/21 08:38:23;;;;;;;14.90;8.95;;;;;;;;;;5078151;28;20036;-71
2023/09/21 08:40:51;;;;;;;15.35;8.65;;;;;;;;;;5056165;28;20040;-70
2023/09/21 08:43:24;;;;;;;12.45;8.68;;;;;;;;;;5073643;28;20036;-69
2023/09/21 08:45:51;;;;;;;13.35;8.60;;;;;;;;;;5071200;28;20029;-69
2023/09/21 08:48:18;;;;;;;13.60;8.65;;;;;;;;;;5084056;28;20116;-69
2023/09/21 08:50:44;;;;;;;12.38;8.32;;;;;;;;;;5094237;28;20134;-70
2023/09/21 08:53:13;;;;;;;11.85;8.18;;;;;;;;;;5093951;28;20635;-70
2023/09/21 08:55:40;;;;;;;13.82;8.65;;;;;;;;;;5093066;28;20040;-70
2023/09/21 08:58:07;;;;;;;11.20;8.00;;;;;;;;;;5074945;28;20036;-69
2023/09/21 09:00:33;;;;;;;14.38;7.85;;;;;;;;;;5094050;28;20043;-67
2023/09/21 09:03:00;;;;;;;10.85;8.00;;;;;;;;;;5092831;28;20552;-69
2023/09/21 09:05:25;;;;;;;10.50;7.65;;;;;;;;;;5092638;28;20040;-69
2023/09/21 09:07:51;;;;;;;12.65;8.55;;;;;;;;;;5074914;28;20047;-69
2023/09/21 09:10:18;;;;;;;12.43;7.68;;;;;;;;;;5092468;28;20058;-69
2023/09/21 09:12:46;;;;;;;12.48;8.15;;;;;;;;;;5074566;28;20077;-70
2023/09/21 09:15:12;;;;;;;9.80;7.55;;;;;;;;;;5094124;28;20032;-69
2023/09/21 09:17:40;;;;;;;10.10;7.88;;;;;;;;;;5086511;28;20070;-68
2023/09/21 09:20:05;;;;;;;10.77;8.20;;;;;;;;;;5073553;28;20028;-70
2023/09/21 09:22:38;;;;;;;11.60;8.93;;;;;;;;;;5073415;28;20063;-70
2023/09/21 09:25:05;;;;;;;15.05;9.18;;;;;;;;;;5073374;28;20496;-70
2023/09/21 09:27:31;;;;;;;13.50;8.82;;;;;;;;;;5072990;28;20563;-70
2023/09/21 09:29:57;;;;;;;19.55;10.27;;;;;;;;;;5073306;28;20024;-69
2023/09/21 09:32:23;;;;;;;22.67;11.50;;;;;;;;;;5072728;28;20064;-70
2023/09/21 09:34:50;;;;;;;33.78;13.50;;;;;;;;;;5073354;28;20168;-70
2023/09/21 09:37:16;;;;;;;17.75;10.45;;;;;;;;;;5073012;28;20123;-69
2023/09/21 09:39:45;;;;;;;25.10;12.60;;;;;;;;;;5073147;28;20567;-70
2023/09/21 09:42:12;;;;;;;11.90;8.30;;;;;;;;;;5073018;28;20082;-68
2023/09/21 09:44:47;;;;;;;11.90;8.35;;;;;;;;;;5071894;28;20044;-70
2023/09/21 09:47:16;;;;;;;18.60;10.48;;;;;;;;;;5072923;28;20036;-70
2023/09/21 09:49:44;;;;;;;12.75;9.05;;;;;;;;;;5071662;28;20033;-70
2023/09/21 09:52:10;;;;;;;12.63;8.98;;;;;;;;;;5072645;28;20105;-71
2023/09/21 09:54:36;;;;;;;13.30;9.68;;;;;;;;;;5072794;28;20070;-69
2023/09/21 09:57:02;;;;;;;12.90;10.07;;;;;;;;;;5086331;28;20044;-69
2023/09/21 09:59:28;;;;;;;15.00;9.82;;;;;;;;;;5072520;28;20032;-68
2023/09/21 10:01:54;;;;;;;15.18;9.88;;;;;;;;;;5072379;28;20167;-70
2023/09/21 10:04:20;;;;;;;14.30;9.80;;;;;;;;;;5070361;28;20541;-67
2023/09/21 10:06:47;;;;;;;12.75;10.32;;;;;;;;;;5072126;28;20123;-69
2023/09/21 10:09:14;;;;;;;18.63;10.20;;;;;;;;;;5075447;28;20028;-71
2023/09/21 10:11:53;;;;;;;22.23;11.15;;;;;;;;;;5086105;28;20048;-68
2023/09/21 10:14:23;;;;;;;20.77;10.13;;;;;;;;;;5062809;28;20488;-69
2023/09/21 10:16:54;;;;;;;15.57;10.52;;;;;;;;;;5071979;28;20040;-70
2023/09/21 10:19:25;;;;;;;13.30;10.77;;;;;;;;;;5071790;28;20040;-69
2023/09/21 10:21:53;;;;;;;18.33;10.70;;;;;;;;;;5072189;28;20032;-69
2023/09/21 10:24:21;;;;;;;15.32;11.18;;;;;;;;;;5070761;28;20115;-67
2023/09/21 10:26:50;;;;;;;19.17;11.93;;;;;;;;;;5071580;28;20041;-68
2023/09/21 10:29:20;;;;;;;16.65;11.13;;;;;;;;;;5070361;28;20031;-70
2023/09/21 10:31:53;;;;;;;18.05;10.48;;;;;;;;;;5070155;28;20060;-68
2023/09/21 10:34:21;;;;;;;16.48;10.85;;;;;;;;;;5069360;28;20041;-69
2023/09/21 10:36:51;;;;;;;15.15;10.93;;;;;;;;;;5071257;28;20506;-69
2023/09/21 10:39:24;;;;;;;13.95;10.93;;;;;;;;;;5071408;28;20086;-69
2023/09/21 10:41:52;;;;;;;16.38;9.90;;;;;;;;;;5071590;28;20032;-68
2023/09/21 10:44:36;;;;;;;14.38;9.80;;;;;;;;;;5070120;28;20029;-70
2023/09/21 10:47:02;;;;;;;16.75;9.73;;;;;;;;;;5071755;28;20124;-70
2023/09/21 10:49:34;;;;;;;13.70;10.32;;;;;;;;;;5071470;28;20182;-69
2023/09/21 10:52:21;;;;;;;14.18;9.85;;;;;;;;;;5071559;28;20052;-69
2023/09/21 10:55:01;;;;;;;17.55;9.82;;;;;;;;;;5071589;28;20037;-69
2023/09/21 10:57:32;;;;;;;14.75;9.32;;;;;;;;;;5071460;28;20028;-67
2023/09/21 11:00:08;;;;;;;8.90;7.95;;;;;;;;;;5071124;28;20051;-67
2023/09/21 11:02:39;;;;;;;12.32;8.85;;;;;;;;;;5070410;28;20037;-69
2023/09/21 11:05:10;;;;;;;12.05;8.63;;;;;;;;;;5071752;28;20456;-69
2023/09/21 11:07:37;;;;;;;13.73;9.68;;;;;;;;;;5071091;28;20512;-69
2023/09/21 11:10:06;;;;;;;10.20;8.48;;;;;;;;;;5071037;28;20501;-70
2023/09/21 11:12:32;;;;;;;16.40;10.43;;;;;;;;;;5074059;28;20467;-69
2023/09/21 11:14:58;;;;;;;14.55;9.95;;;;;;;;;;5071954;28;20033;-70
2023/09/21 11:17:24;;;;;;;16.25;10.05;;;;;;;;;;5071744;28;20051;-71
2023/09/21 11:19:50;;;;;;;15.35;10.48;;;;;;;;;;5070211;28;20037;-68
2023/09/21 11:22:16;;;;;;;12.35;9.95;;;;;;;;;;5071166;28;20570;-69
2023/09/21 11:24:42;;;;;;;13.48;10.82;;;;;;;;;;5069717;28;20036;-68
2023/09/21 11:27:09;;;;;;;16.23;11.63;;;;;;;;;;5070100;28;20068;-70
2023/09/21 11:29:39;;;;;;;15.20;10.80;;;;;;;;;;5070761;28;20040;-71
2023/09/21 11:32:22;;;;;;;14.57;10.93;;;;;;;;;;5069523;28;20060;-70
2023/09/21 11:34:56;;;;;;;17.15;10.65;;;;;;;;;;5089023;28;20067;-70
2023/09/21 11:37:22;;;;;;;12.30;9.48;;;;;;;;;;5091339;28;20043;-69
2023/09/21 11:39:51;;;;;;;14.80;9.82;;;;;;;;;;5089372;28;20035;-68
2023/09/21 11:42:35;;;;;;;11.93;9.73;;;;;;;;;;5089934;28;20479;-69
2023/09/21 11:45:05;;;;;;;12.75;9.82;;;;;;;;;;5090956;28;20032;-69
2023/09/21 11:47:40;;;;;;;15.85;9.98;;;;;;;;;;5090603;28;20040;-70
2023/09/21 11:50:06;;;;;;;12.13;9.35;;;;;;;;;;5090917;28;20044;-68
2023/09/21 11:52:34;;;;;;;11.73;9.07;;;;;;;;;;5091283;28;20119;-68
2023/09/21 11:55:06;;;;;;;14.30;10.02;;;;;;;;;;5090993;28;20068;-68
2023/09/21 11:57:34;;;;;;;15.82;10.00;;;;;;;;;;5091110;28;20040;-67
2023/09/21 12:00:04;;;;;;;16.95;11.90;;;;;;;;;;5090693;28;20063;-69
2023/09/21 12:02:43;;;;;;;16.52;11.07;;;;;;;;;;5090072;28;20035;-69
2023/09/21 12:05:11;;;;;;;14.95;11.35;;;;;;;;;;5090548;28;20040;-68
2023/09/21 12:07:44;;;;;;;15.95;12.20;;;;;;;;;;5090216;28;20081;-69
2023/09/21 12:10:24;;;;;;;18.20;12.00;;;;;;;;;;5091020;28;20054;-69
2023/09/21 12:12:50;;;;;;;16.45;11.63;;;;;;;;;;5093041;28;20040;-69
2023/09/21 12:15:17;;;;;;;16.40;11.85;;;;;;;;;;5069738;28;20060;-69
2023/09/21 12:17:54;;;;;;;14.95;11.60;;;;;;;;;;5070479;28;20068;-70
2023/09/21 12:20:31;;;;;;;18.42;11.48;;;;;;;;;;5069152;28;20037;-70
2023/09/21 12:23:06;;;;;;;22.35;12.13;;;;;;;;;;5051396;28;20040;-67
2023/09/21 12:25:33;;;;;;;14.75;11.02;;;;;;;;;;5070729;28;20032;-71
2023/09/21 12:27:58;;;;;;;17.38;11.73;;;;;;;;;;5089964;28;20048;-69
2023/09/21 12:30:24;;;;;;;17.58;11.52;;;;;;;;;;5090782;28;20067;-67
2023/09/21 12:32:50;;;;;;;12.98;10.43;;;;;;;;;;5072257;28;20063;-70
2023/09/21 12:35:17;;;;;;;16.23;10.43;;;;;;;;;;5094763;28;20122;-70
2023/09/21 12:37:44;;;;;;;22.02;10.55;;;;;;;;;;5094324;28;20036;-71
2023/09/21 12:40:14;;;;;;;19.05;11.30;;;;;;;;;;5094557;28;20514;-70
2023/09/21 12:42:43;;;;;;;12.95;9.85;;;;;;;;;;5094192;28;20039;-70
2023/09/21 12:45:11;;;;;;;14.50;9.70;;;;;;;;;;5094542;28;20036;-69
2023/09/21 12:47:37;;;;;;;13.07;9.32;;;;;;;;;;5094071;28;20039;-70
2023/09/21 12:50:03;;;;;;;13.32;8.95;;;;;;;;;;5094141;28;20462;-70
2023/09/21 12:52:29;;;;;;;14.50;9.55;;;;;;;;;;5093782;28;20078;-70
2023/09/21 12:54:55;;;;;;;12.80;8.85;;;;;;;;;;5094413;28;20031;-70
2023/09/21 12:57:21;;;;;;;11.73;8.13;;;;;;;;;;5093925;28;20043;-70
2023/09/21 12:59:47;;;;;;;11.98;8.80;;;;;;;;;;5094147;28;20039;-71
2023/09/21 13:02:12;;;;;;;10.30;8.30;;;;;;;;;;5093871;28;20039;-69
2023/09/21 13:04:38;;;;;;;14.88;9.13;;;;;;;;;;5094302;28;20489;-69
2023/09/21 13:07:04;;;;;;;10.65;8.05;;;;;;;;;;5093420;28;20028;-70
2023/09/21 13:09:30;;;;;;;10.70;8.27;;;;;;;;;;5093855;28;20036;-69
2023/09/21 13:11:55;;;;;;;11.13;8.45;;;;;;;;;;5075210;28;20123;-69
2023/09/21 13:14:21;;;;;;;10.45;8.68;;;;;;;;;;5093849;28;20384;-70
2023/09/21 13:16:46;;;;;;;12.68;8.00;;;;;;;;;;5088939;28;20119;-69
2023/09/21 13:19:14;;;;;;;12.77;8.20;;;;;;;;;;5093496;28;20032;-70
2023/09/21 13:21:41;;;;;;;10.60;7.53;;;;;;;;;;5093269;28;20028;-69
2023/09/21 13:24:07;;;;;;;9.32;7.53;;;;;;;;;;5093322;28;20119;-63
2023/09/21 13:26:33;;;;;;;10.95;7.55;;;;;;;;;;5086147;28;20464;-69
2023/09/21 13:28:59;;;;;;;13.27;7.80;;;;;;;;;;5071850;28;20063;-66
2023/09/21 13:31:25;;;;;;;16.92;7.70;;;;;;;;;;5071973;28;20509;-67
2023/09/21 13:33:51;;;;;;;11.18;7.90;;;;;;;;;;5072833;28;20063;-68
2023/09/21 13:36:17;;;;;;;13.48;8.23;;;;;;;;;;5071878;28;20440;-67
2023/09/21 13:38:44;;;;;;;10.30;7.70;;;;;;;;;;5072804;28;20445;-66
2023/09/21 13:41:10;;;;;;;9.95;7.15;;;;;;;;;;5073047;28;20040;-67
2023/09/21 13:43:37;;;;;;;11.75;7.60;;;;;;;;;;5072862;28;20059;-67
2023/09/21 13:46:05;;;;;;;10.63;7.82;;;;;;;;;;5073078;28;20036;-66
2023/09/21 13:48:32;;;;;;;11.50;8.35;;;;;;;;;;5072724;28;20524;-65
2023/09/21 13:50:59;;;;;;;11.88;7.60;;;;;;;;;;5073029;28;20422;-65
2023/09/21 13:53:25;;;;;;;11.70;8.18;;;;;;;;;;5072332;28;20036;-66
2023/09/21 13:55:52;;;;;;;12.43;7.97;;;;;;;;;;5072656;28;20033;-66
2023/09/21 13:58:18;;;;;;;12.90;7.85;;;;;;;;;;5054345;28;20533;-64
2023/09/21 14:00:43;;;;;;;15.35;8.20;;;;;;;;;;5072366;28;20071;-66
2023/09/21 14:03:10;;;;;;;13.82;7.85;;;;;;;;;;5072145;28;20041;-65
2023/09/21 14:05:35;;;;;;;10.65;8.07;;;;;;;;;;5080202;28;20177;-65
2023/09/21 14:08:03;;;;;;;10.00;7.25;;;;;;;;;;5092656;28;20514;-64
2023/09/21 14:10:30;;;;;;;11.13;8.10;;;;;;;;;;5092155;28;20040;-65
2023/09/21 14:12:56;;;;;;;10.27;8.00;;;;;;;;;;5100292;28;20500;-64
2023/09/21 14:15:21;;;;;;;11.25;7.50;;;;;;;;;;5086056;28;20120;-66
2023/09/21 14:17:47;;;;;;;9.23;7.40;;;;;;;;;;5071302;28;20040;-65
2023/09/21 14:20:13;;;;;;;10.63;7.80;;;;;;;;;;5070731;28;20037;-64
2023/09/21 14:22:39;;;;;;;11.27;8.02;;;;;;;;;;5071585;28;20048;-65
2023/09/21 14:25:05;;;;;;;15.18;7.93;;;;;;;;;;5072151;28;20028;-65
2023/09/21 14:27:32;;;;;;;16.45;7.88;;;;;;;;;;5072324;28;20114;-66
2023/09/21 14:29:57;;;;;;;13.73;8.73;;;;;;;;;;5070626;28;20123;-64
2023/09/21 14:32:23;;;;;;;16.15;8.02;;;;;;;;;;5075714;28;20462;-66